createdAt,value
2018-10-04T00:01:36.999Z,2.50
2018-10-04T00:04:05.275Z,3.10
2018-10-04T00:06:33.583Z,3.83
2018-10-04T00:09:02.783Z,2.93
2018-10-04T00:11:31.131Z,2.80
2018-10-04T00:13:59.438Z,2.80
2018-10-04T00:16:27.731Z,2.67
2018-10-04T00:18:56.036Z,3.20
2018-10-04T00:21:24.342Z,2.33
2018-10-04T00:23:52.565Z,3.17
2018-10-04T00:26:20.921Z,3.33
2018-10-04T00:28:49.195Z,2.67
2018-10-04T00:31:17.429Z,2.87
2018-10-04T00:33:45.685Z,2.70
2018-10-04T00:36:13.958Z,2.57
2018-10-04T00:38:42.415Z,2.70
2018-10-04T00:41:10.684Z,2.97
2018-10-04T00:43:38.999Z,2.40
2018-10-04T00:46:07.236Z,2.77
2018-10-04T00:48:35.493Z,2.60
2018-10-04T00:51:03.772Z,2.23
2018-10-04T00:53:32.111Z,2.80
2018-10-04T00:56:00.339Z,3.43
2018-10-04T00:58:28.613Z,2.53
2018-10-04T01:00:56.874Z,2.93
2018-10-04T01:03:25.102Z,2.80
2018-10-04T01:05:53.328Z,2.80
2018-10-04T01:08:21.633Z,2.50
2018-10-04T01:10:49.885Z,2.30
2018-10-04T01:13:18.128Z,2.30
2018-10-04T01:15:46.387Z,2.73
2018-10-04T01:18:25.902Z,2.73
2018-10-04T01:20:54.188Z,3.00
2018-10-04T01:23:22.448Z,2.50
2018-10-04T01:25:50.709Z,2.97
2018-10-04T01:28:19.021Z,1.93
2018-10-04T01:30:47.243Z,2.50
2018-10-04T01:33:15.464Z,2.37
2018-10-04T01:35:43.772Z,2.30
2018-10-04T01:38:12.279Z,1.83
2018-10-04T01:40:40.502Z,3.73
2018-10-04T01:43:08.753Z,2.50
2018-10-04T01:45:37.180Z,2.23
2018-10-04T01:48:05.598Z,2.33
2018-10-04T01:50:33.841Z,2.87
2018-10-04T01:53:02.074Z,2.80
2018-10-04T01:55:30.340Z,2.57
2018-10-04T01:57:58.578Z,2.93
2018-10-04T02:00:26.835Z,1.83
2018-10-04T02:02:55.107Z,2.63
2018-10-04T02:05:24.506Z,3.17
2018-10-04T02:07:53.051Z,3.17
2018-10-04T02:10:21.807Z,2.90
2018-10-04T02:12:50.150Z,3.43
2018-10-04T02:15:18.513Z,2.47
2018-10-04T02:17:46.796Z,2.47
2018-10-04T02:20:16.404Z,1.60
2018-10-04T02:22:44.671Z,3.70
2018-10-04T02:25:12.986Z,2.77
2018-10-04T02:27:41.327Z,2.03
2018-10-04T02:30:09.613Z,2.37
2018-10-04T02:32:38.010Z,3.20
2018-10-04T02:35:06.272Z,3.57
2018-10-04T02:37:34.538Z,2.87
2018-10-04T02:40:02.908Z,2.63
2018-10-04T02:42:31.155Z,2.10
2018-10-04T02:44:59.674Z,3.77
2018-10-04T02:47:27.980Z,2.93
2018-10-04T02:49:56.289Z,2.90
2018-10-04T02:52:24.548Z,2.17
2018-10-04T02:54:58.143Z,2.30
2018-10-04T02:57:26.409Z,3.27
2018-10-04T02:59:54.675Z,2.27
2018-10-04T03:02:22.979Z,3.30
2018-10-04T03:04:51.245Z,2.80
2018-10-04T03:07:19.577Z,2.93
2018-10-04T03:09:47.867Z,3.10
2018-10-04T03:12:16.126Z,2.33
2018-10-04T03:14:44.401Z,2.90
2018-10-04T03:17:12.647Z,2.30
2018-10-04T03:19:40.926Z,2.93
2018-10-04T03:22:09.179Z,2.90
2018-10-04T03:24:37.433Z,2.60
2018-10-04T03:27:05.712Z,2.23
2018-10-04T03:29:34.032Z,2.90
2018-10-04T03:32:02.308Z,2.60
2018-10-04T03:34:30.649Z,3.23
2018-10-04T03:36:58.932Z,2.70
2018-10-04T03:39:27.197Z,2.40
2018-10-04T03:41:55.506Z,2.57
2018-10-04T03:44:23.909Z,3.23
2018-10-04T03:46:52.179Z,2.40
2018-10-04T03:49:20.516Z,2.50
2018-10-04T03:51:48.851Z,2.70
2018-10-04T03:54:17.096Z,2.17
2018-10-04T03:56:45.795Z,3.30
2018-10-04T03:59:14.029Z,3.30
2018-10-04T04:01:42.461Z,3.13
2018-10-04T04:04:10.796Z,2.53
2018-10-04T04:06:39.045Z,2.70
2018-10-04T04:09:08.925Z,2.60
2018-10-04T04:11:37.256Z,3.40
2018-10-04T04:14:05.617Z,3.47
2018-10-04T04:16:33.952Z,3.47
2018-10-04T04:19:02.281Z,3.27
2018-10-04T04:21:31.156Z,2.77
2018-10-04T04:23:59.534Z,2.97
2018-10-04T04:26:27.933Z,2.83
2018-10-04T04:28:56.204Z,3.53
2018-10-04T04:31:24.609Z,2.73
2018-10-04T04:33:53.161Z,3.33
2018-10-04T04:36:21.837Z,2.87
2018-10-04T04:38:50.270Z,3.27
2018-10-04T04:41:18.596Z,2.70
2018-10-04T04:43:46.887Z,2.83
2018-10-04T04:46:15.187Z,2.90
2018-10-04T04:48:43.441Z,3.33
2018-10-04T04:51:11.789Z,2.77
2018-10-04T04:53:42.183Z,2.07
2018-10-04T04:56:10.793Z,3.23
2018-10-04T04:58:39.134Z,3.07
2018-10-04T05:01:07.412Z,2.60
2018-10-04T05:03:35.685Z,4.13
2018-10-04T05:06:04.003Z,3.20
2018-10-04T05:08:32.288Z,3.20
2018-10-04T05:11:00.579Z,2.50
2018-10-04T05:13:28.920Z,3.10
2018-10-04T05:15:57.357Z,2.03
2018-10-04T05:18:25.590Z,3.30
2018-10-04T05:20:53.876Z,2.83
2018-10-04T05:23:22.244Z,3.07
2018-10-04T05:25:50.542Z,2.80
2018-10-04T05:28:18.796Z,2.67
2018-10-04T05:30:50.560Z,3.03
2018-10-04T05:33:18.934Z,3.00
2018-10-04T05:35:50.644Z,2.97
2018-10-04T05:38:19.079Z,2.70
2018-10-04T05:40:50.230Z,3.30
2018-10-04T05:43:18.666Z,3.33
2018-10-04T05:45:47.529Z,2.80
2018-10-04T05:48:16.388Z,3.30
2018-10-04T05:50:44.653Z,2.73
2018-10-04T05:53:12.912Z,4.20
2018-10-04T05:55:41.424Z,2.77
2018-10-04T05:58:09.836Z,2.90
2018-10-04T06:00:42.721Z,2.47
2018-10-04T06:03:11.974Z,3.30
2018-10-04T06:05:40.247Z,2.60
2018-10-04T06:08:08.562Z,2.70
2018-10-04T06:10:37.173Z,2.60
2018-10-04T06:13:05.488Z,2.33
2018-10-04T06:15:33.841Z,2.30
2018-10-04T06:18:02.355Z,2.73
2018-10-04T06:20:35.590Z,3.07
2018-10-04T06:23:06.058Z,3.07
2018-10-04T06:25:34.372Z,2.30
2018-10-04T06:28:02.684Z,2.80
2018-10-04T06:30:30.967Z,2.70
2018-10-04T06:32:59.278Z,3.93
2018-10-04T06:35:27.580Z,2.37
2018-10-04T06:37:55.832Z,3.00
2018-10-04T06:40:24.267Z,2.93
2018-10-04T06:42:52.539Z,2.00
2018-10-04T06:45:20.797Z,2.50
2018-10-04T06:47:49.047Z,2.47
2018-10-04T06:50:17.336Z,2.87
2018-10-04T06:52:45.598Z,2.27
2018-10-04T06:55:14.288Z,2.97
2018-10-04T06:57:42.591Z,2.30
2018-10-04T07:00:10.854Z,2.77
2018-10-04T07:02:39.212Z,2.27
2018-10-04T07:05:08.252Z,2.30
2018-10-04T07:07:36.721Z,2.60
2018-10-04T07:10:05.045Z,2.50
2018-10-04T07:12:33.266Z,2.37
2018-10-04T07:15:01.531Z,2.37
2018-10-04T07:17:29.867Z,2.90
2018-10-04T07:19:58.116Z,2.33
2018-10-04T07:22:26.389Z,2.00
2018-10-04T07:24:54.705Z,2.83
2018-10-04T07:27:23.010Z,2.60
2018-10-04T07:29:51.276Z,3.10
2018-10-04T07:32:19.554Z,1.93
2018-10-04T07:34:47.905Z,2.30
2018-10-04T07:37:16.206Z,2.90
2018-10-04T07:39:44.364Z,2.07
2018-10-04T07:42:12.696Z,2.10
2018-10-04T07:44:40.915Z,2.73
2018-10-04T07:47:09.190Z,2.30
2018-10-04T07:49:37.455Z,2.67
2018-10-04T07:52:05.791Z,2.47
2018-10-04T07:54:34.023Z,2.30
2018-10-04T07:57:02.315Z,1.90
2018-10-04T07:59:30.603Z,2.33
2018-10-04T08:01:58.870Z,2.47
2018-10-04T08:04:27.250Z,3.00
2018-10-04T08:06:55.563Z,2.70
2018-10-04T08:09:23.904Z,2.90
2018-10-04T08:11:52.180Z,3.30
2018-10-04T08:14:20.969Z,3.03
2018-10-04T08:16:49.319Z,2.60
2018-10-04T08:19:17.608Z,2.03
2018-10-04T08:21:45.891Z,2.80
2018-10-04T08:24:14.133Z,2.20
2018-10-04T08:26:42.383Z,2.10
2018-10-04T08:29:10.790Z,3.10
2018-10-04T08:31:39.171Z,2.60
2018-10-04T08:34:07.467Z,3.37
2018-10-04T08:36:35.730Z,2.17
2018-10-04T08:39:05.138Z,2.57
2018-10-04T08:41:33.532Z,3.07
2018-10-04T08:44:01.865Z,2.30
2018-10-04T08:46:30.132Z,2.13
2018-10-04T08:48:58.439Z,3.27
2018-10-04T08:51:32.131Z,3.47
2018-10-04T08:54:00.633Z,2.47
2018-10-04T08:56:28.881Z,2.40
2018-10-04T08:58:57.723Z,2.73
2018-10-04T09:01:25.975Z,2.50
2018-10-04T09:04:00.377Z,2.87
2018-10-04T09:06:29.143Z,2.80
2018-10-04T09:08:57.524Z,2.47
2018-10-04T09:11:26.627Z,2.67
2018-10-04T09:13:54.875Z,2.80
2018-10-04T09:16:23.271Z,2.10
2018-10-04T09:18:51.981Z,2.47
2018-10-04T09:21:20.700Z,1.90
2018-10-04T09:23:49.474Z,2.20
2018-10-04T09:26:18.012Z,1.93
2018-10-04T09:28:52.379Z,2.27
2018-10-04T09:31:26.102Z,2.47
2018-10-04T09:33:54.390Z,2.23
2018-10-04T09:36:22.736Z,3.20
2018-10-04T09:38:50.989Z,1.87
2018-10-04T09:41:19.262Z,2.70
2018-10-04T09:43:48.048Z,3.17
2018-10-04T09:46:16.431Z,2.57
2018-10-04T09:48:47.773Z,3.07
2018-10-04T09:51:21.820Z,4.03
2018-10-04T09:53:58.894Z,2.50
2018-10-04T09:56:32.577Z,3.37
2018-10-04T09:59:04.182Z,3.47
2018-10-04T10:01:38.047Z,3.30
2018-10-04T10:04:07.051Z,2.80
2018-10-04T10:06:39.947Z,4.10
2018-10-04T10:09:09.630Z,2.50
2018-10-04T10:11:37.967Z,1.87
2018-10-04T10:14:06.230Z,2.40
2018-10-04T10:16:35.112Z,1.63
2018-10-04T10:19:03.881Z,1.97
2018-10-04T10:21:32.231Z,1.70
2018-10-04T10:24:00.603Z,2.90
2018-10-04T10:26:29.112Z,3.00
2018-10-04T10:29:00.059Z,2.00
2018-10-04T10:31:28.421Z,2.50
2018-10-04T10:34:07.490Z,1.73
2018-10-04T10:36:37.831Z,2.10
2018-10-04T10:39:07.159Z,2.43
2018-10-04T10:41:35.499Z,2.40
2018-10-04T10:44:03.840Z,2.30
2018-10-04T10:46:32.184Z,2.50
2018-10-04T10:49:04.795Z,2.47
2018-10-04T10:51:34.250Z,2.13
2018-10-04T10:54:02.564Z,1.87
2018-10-04T10:56:31.966Z,2.00
2018-10-04T10:59:00.804Z,3.57
2018-10-04T11:01:29.295Z,2.60
2018-10-04T11:03:57.676Z,1.60
2018-10-04T11:06:26.041Z,1.73
2018-10-04T11:08:54.389Z,2.73
2018-10-04T11:11:22.853Z,1.73
2018-10-04T11:13:51.091Z,2.70
2018-10-04T11:16:19.375Z,2.60
2018-10-04T11:18:47.651Z,2.80
2018-10-04T11:21:15.969Z,2.57
2018-10-04T11:23:44.232Z,2.73
2018-10-04T11:26:12.546Z,2.00
2018-10-04T11:28:40.771Z,1.87
2018-10-04T11:31:09.099Z,2.20
2018-10-04T11:33:37.538Z,2.10
2018-10-04T11:36:05.823Z,2.20
2018-10-04T11:38:34.093Z,1.90
2018-10-04T11:41:02.714Z,2.27
2018-10-04T11:43:30.984Z,1.87
2018-10-04T11:46:00.921Z,2.03
2018-10-04T11:48:31.314Z,1.70
2018-10-04T11:50:59.636Z,1.97
2018-10-04T11:53:28.213Z,2.33
2018-10-04T11:55:57.361Z,1.87
2018-10-04T11:58:25.619Z,1.97
2018-10-04T12:00:53.874Z,2.70
2018-10-04T12:03:23.720Z,2.20
2018-10-04T12:05:52.237Z,1.63
2018-10-04T12:08:20.539Z,1.63
2018-10-04T12:10:49.787Z,2.07
2018-10-04T12:13:18.383Z,1.50
2018-10-04T12:15:46.597Z,1.70
2018-10-04T12:18:14.815Z,1.47
2018-10-04T12:20:43.168Z,1.83
2018-10-04T12:23:11.878Z,1.80
2018-10-04T12:25:40.510Z,2.03
2018-10-04T12:28:08.779Z,1.50
2018-10-04T12:30:37.079Z,1.97
2018-10-04T12:33:05.339Z,1.80
2018-10-04T12:35:33.672Z,1.80
2018-10-04T12:38:02.001Z,1.53
2018-10-04T12:40:33.823Z,1.93
2018-10-04T12:43:05.733Z,2.03
2018-10-04T12:45:35.401Z,1.43
2018-10-04T12:48:04.023Z,2.00
2018-10-04T12:50:33.405Z,1.40
2018-10-04T12:53:02.551Z,1.60
2018-10-04T12:55:30.920Z,1.73
2018-10-04T12:57:59.951Z,1.80
2018-10-04T13:00:28.754Z,1.60
2018-10-04T13:02:57.397Z,2.03
2018-10-04T13:05:26.189Z,1.87
2018-10-04T13:07:54.494Z,1.70
2018-10-04T13:10:24.345Z,1.77
2018-10-04T13:12:54.253Z,1.90
2018-10-04T13:15:22.588Z,2.43
2018-10-04T13:17:50.822Z,1.90
2018-10-04T13:20:19.862Z,2.00
2018-10-04T13:22:48.339Z,1.90
2018-10-04T13:25:16.594Z,2.47
2018-10-04T13:27:45.468Z,2.00
2018-10-04T13:30:13.721Z,2.00
2018-10-04T13:32:42.078Z,2.47
2018-10-04T13:35:10.326Z,1.93
2018-10-04T13:37:38.639Z,1.90
2018-10-04T13:40:08.693Z,2.10
2018-10-04T13:42:39.070Z,2.13
2018-10-04T13:45:12.524Z,2.37
2018-10-04T13:47:40.892Z,2.03
2018-10-04T13:50:09.171Z,1.53
2018-10-04T13:52:38.702Z,1.90
2018-10-04T13:55:07.239Z,1.80
2018-10-04T13:57:35.619Z,1.60
2018-10-04T14:00:04.880Z,2.27
2018-10-04T14:02:34.345Z,1.60
2018-10-04T14:05:02.704Z,2.70
2018-10-04T14:07:31.619Z,2.03
2018-10-04T14:09:59.913Z,2.37
2018-10-04T14:12:29.567Z,2.67
2018-10-04T14:14:57.898Z,1.90
2018-10-04T14:17:26.273Z,2.20
2018-10-04T14:19:54.523Z,2.27
2018-10-04T14:22:24.310Z,2.80
2018-10-04T14:24:53.173Z,2.60
2018-10-04T14:27:22.116Z,2.33
2018-10-04T14:29:56.889Z,3.00
2018-10-04T14:32:25.706Z,2.37
2018-10-04T14:34:54.719Z,2.77
2018-10-04T14:37:27.131Z,2.80
2018-10-04T14:39:56.041Z,2.50
2018-10-04T14:42:25.058Z,4.07
2018-10-04T14:44:55.365Z,2.83
2018-10-04T14:47:24.868Z,2.57
2018-10-04T14:49:53.896Z,2.57
2018-10-04T14:52:25.469Z,3.30
2018-10-04T14:55:01.667Z,2.43
2018-10-04T14:57:31.428Z,2.30
2018-10-04T15:00:00.921Z,2.80
2018-10-04T15:02:32.646Z,4.07
2018-10-04T15:05:03.267Z,3.07
2018-10-04T15:07:31.846Z,3.30
2018-10-04T15:10:00.347Z,2.30
2018-10-04T15:12:31.282Z,2.70
2018-10-04T15:15:02.125Z,2.33
2018-10-04T15:17:31.929Z,2.60
2018-10-04T15:20:00.433Z,1.77
2018-10-04T15:22:31.887Z,2.17
2018-10-04T15:25:00.393Z,2.10
2018-10-04T15:27:28.902Z,2.77
2018-10-04T15:29:57.391Z,2.63
2018-10-04T15:32:26.613Z,2.23
2018-10-04T15:34:54.898Z,2.40
2018-10-04T15:37:23.379Z,2.73
2018-10-04T15:39:52.368Z,2.47
2018-10-04T15:42:20.898Z,3.10
2018-10-04T15:44:49.807Z,2.97
2018-10-04T15:47:18.407Z,3.10
2018-10-04T15:49:46.917Z,2.60
2018-10-04T15:52:15.903Z,3.10
2018-10-04T15:54:44.647Z,2.83
2018-10-04T15:57:13.073Z,3.10
2018-10-04T15:59:41.792Z,3.70
2018-10-04T16:02:10.437Z,2.80
2018-10-04T16:04:39.188Z,2.80
2018-10-04T16:07:07.905Z,2.20
2018-10-04T16:09:36.439Z,3.37
2018-10-04T16:12:05.104Z,3.43
2018-10-04T16:14:33.517Z,3.40
2018-10-04T16:17:02.053Z,2.60
2018-10-04T16:19:34.189Z,2.47
2018-10-04T16:22:02.687Z,2.97
2018-10-04T16:24:31.050Z,2.27
2018-10-04T16:26:59.832Z,3.27
2018-10-04T16:29:28.677Z,3.07
2018-10-04T16:31:57.270Z,3.30
2018-10-04T16:34:25.881Z,2.87
2018-10-04T16:36:54.773Z,3.67
2018-10-04T16:39:24.348Z,3.10
2018-10-04T16:41:52.863Z,3.10
2018-10-04T16:44:21.449Z,2.67
2018-10-04T16:46:50.133Z,3.40
2018-10-04T16:49:18.827Z,3.00
2018-10-04T16:51:47.392Z,3.30
2018-10-04T16:54:16.073Z,4.33
2018-10-04T16:56:45.061Z,2.70
2018-10-04T16:59:13.567Z,3.77
2018-10-04T17:01:42.015Z,3.53
2018-10-04T17:04:10.515Z,3.40
2018-10-04T17:06:39.211Z,3.10
2018-10-04T17:09:10.027Z,2.80
2018-10-04T17:11:38.812Z,3.00
2018-10-04T17:14:07.498Z,2.83
2018-10-04T17:16:35.972Z,3.50
2018-10-04T17:19:04.519Z,3.00
2018-10-04T17:21:33.078Z,3.80
2018-10-04T17:24:01.648Z,3.27
2018-10-04T17:26:30.350Z,3.47
2018-10-04T17:28:58.768Z,2.97
2018-10-04T17:31:27.185Z,2.80
2018-10-04T17:33:55.548Z,3.00
2018-10-04T17:36:24.162Z,2.83
2018-10-04T17:38:52.761Z,3.40
2018-10-04T17:41:21.244Z,2.97
2018-10-04T17:43:49.818Z,3.60
2018-10-04T17:46:18.392Z,3.87
2018-10-04T17:48:46.888Z,3.10
2018-10-04T17:51:15.456Z,3.33
2018-10-04T17:53:44.441Z,3.73
2018-10-04T17:56:12.947Z,3.63
2018-10-04T17:58:41.616Z,5.10
2018-10-04T18:01:10.084Z,3.70
2018-10-04T18:03:38.513Z,4.57
2018-10-04T18:06:07.103Z,4.40
2018-10-04T18:08:35.859Z,4.17
2018-10-04T18:11:04.507Z,4.53
2018-10-04T18:13:33.522Z,3.97
2018-10-04T18:16:02.547Z,3.63
2018-10-04T18:18:31.179Z,4.20
2018-10-04T18:20:59.797Z,4.80
2018-10-04T18:23:28.376Z,4.23
2018-10-04T18:25:57.005Z,4.67
2018-10-04T18:28:25.681Z,4.70
2018-10-04T18:30:54.302Z,3.07
2018-10-04T18:33:22.853Z,3.70
2018-10-04T18:35:51.297Z,3.70
2018-10-04T18:38:21.791Z,3.50
2018-10-04T18:40:55.546Z,3.43
2018-10-04T18:43:24.027Z,4.33
2018-10-04T18:45:52.503Z,3.50
2018-10-04T18:48:21.118Z,4.80
2018-10-04T18:50:49.652Z,4.20
2018-10-04T18:53:18.110Z,4.20
2018-10-04T18:55:46.599Z,4.73
2018-10-04T18:58:15.047Z,3.70
2018-10-04T19:00:43.665Z,3.53
2018-10-04T19:03:12.172Z,3.70
2018-10-04T19:05:40.649Z,4.17
2018-10-04T19:08:09.104Z,4.97
2018-10-04T19:10:37.747Z,3.80
2018-10-04T19:13:07.151Z,2.93
2018-10-04T19:15:35.598Z,3.80
2018-10-04T19:18:04.162Z,3.73
2018-10-04T19:20:33.460Z,4.40
2018-10-04T19:23:01.949Z,3.97
2018-10-04T19:25:30.467Z,4.40
2018-10-04T19:28:00.627Z,4.13
2018-10-04T19:30:28.978Z,3.73
2018-10-04T19:32:57.243Z,3.30
2018-10-04T19:35:25.728Z,3.73
2018-10-04T19:37:54.192Z,4.03
2018-10-04T19:40:22.619Z,3.70
2018-10-04T19:42:50.987Z,3.37
2018-10-04T19:45:19.401Z,3.37
2018-10-04T19:47:47.647Z,2.90
2018-10-04T19:50:15.941Z,4.00
2018-10-04T19:52:44.257Z,3.10
2018-10-04T19:55:12.530Z,3.97
2018-10-04T19:57:40.880Z,3.80
2018-10-04T20:00:09.195Z,3.60
2018-10-04T20:02:37.477Z,3.63
2018-10-04T20:05:06.263Z,5.10
2018-10-04T20:07:34.544Z,3.70
2018-10-04T20:10:02.912Z,3.33
2018-10-04T20:12:31.206Z,4.70
2018-10-04T20:14:59.482Z,5.20
2018-10-04T20:17:27.748Z,5.27
2018-10-04T20:19:56.000Z,4.03
2018-10-04T20:22:24.360Z,3.77
2018-10-04T20:24:52.599Z,3.10
2018-10-04T20:27:20.920Z,3.77
2018-10-04T20:29:49.319Z,3.67
2018-10-04T20:32:17.577Z,3.90
2018-10-04T20:34:46.028Z,3.33
2018-10-04T20:37:14.357Z,3.30
2018-10-04T20:39:42.796Z,3.80
2018-10-04T20:42:11.116Z,3.77
2018-10-04T20:44:39.407Z,3.00
2018-10-04T20:47:07.768Z,4.73
2018-10-04T20:49:36.061Z,4.40
2018-10-04T20:52:04.352Z,3.73
2018-10-04T20:54:32.735Z,4.90
2018-10-04T20:57:01.051Z,4.60
2018-10-04T20:59:29.405Z,4.40
2018-10-04T21:01:57.762Z,4.53
2018-10-04T21:04:26.071Z,4.53
2018-10-04T21:06:54.490Z,4.53
2018-10-04T21:09:23.106Z,5.43
2018-10-04T21:11:51.432Z,4.30
2018-10-04T21:14:20.184Z,4.97
2018-10-04T21:16:48.483Z,4.13
2018-10-04T21:19:16.741Z,3.80
2018-10-04T21:21:45.242Z,4.20
2018-10-04T21:24:13.604Z,3.33
2018-10-04T21:26:42.051Z,5.27
2018-10-04T21:29:10.558Z,6.00
2018-10-04T21:31:38.866Z,4.10
2018-10-04T21:34:07.390Z,4.20
2018-10-04T21:36:36.061Z,4.77
2018-10-04T21:39:05.513Z,3.83
2018-10-04T21:41:33.977Z,5.00
2018-10-04T21:44:02.367Z,3.43
2018-10-04T21:46:30.690Z,4.30
2018-10-04T21:48:59.362Z,4.40
2018-10-04T21:51:27.859Z,4.63
2018-10-04T21:53:58.041Z,3.50
2018-10-04T21:56:28.721Z,3.97
2018-10-04T21:58:58.113Z,3.70
2018-10-04T22:01:31.818Z,3.93
2018-10-04T22:04:00.472Z,4.50
2018-10-04T22:06:29.251Z,3.80
2018-10-04T22:08:57.960Z,4.27
2018-10-04T22:11:26.997Z,5.80
2018-10-04T22:13:55.830Z,3.60
2018-10-04T22:16:24.479Z,3.50
2018-10-04T22:18:53.113Z,4.77
2018-10-04T22:21:21.648Z,4.80
2018-10-04T22:23:50.304Z,3.73
2018-10-04T22:26:19.167Z,3.60
2018-10-04T22:28:48.046Z,4.33
2018-10-04T22:31:17.929Z,4.60
2018-10-04T22:33:46.434Z,5.03
2018-10-04T22:36:15.139Z,3.63
2018-10-04T22:38:43.675Z,4.30
2018-10-04T22:41:12.418Z,4.53
2018-10-04T22:43:41.104Z,3.43
2018-10-04T22:46:09.873Z,3.40
2018-10-04T22:48:38.576Z,4.23
2018-10-04T22:51:07.421Z,4.20
2018-10-04T22:53:36.501Z,4.10
2018-10-04T22:56:05.210Z,3.73
2018-10-04T22:58:33.810Z,3.97
2018-10-04T23:01:02.547Z,4.33
2018-10-04T23:03:31.271Z,3.47
2018-10-04T23:06:00.195Z,3.57
2018-10-04T23:08:28.910Z,4.33
2018-10-04T23:10:57.812Z,4.07
2018-10-04T23:13:26.669Z,3.67
2018-10-04T23:15:55.313Z,3.67
2018-10-04T23:18:24.008Z,3.60
2018-10-04T23:20:52.786Z,3.90
2018-10-04T23:23:21.577Z,4.27
2018-10-04T23:25:50.272Z,3.53
2018-10-04T23:28:19.008Z,3.90
2018-10-04T23:30:47.595Z,3.33
2018-10-04T23:33:16.127Z,4.00
2018-10-04T23:35:44.550Z,4.00
2018-10-04T23:38:15.224Z,4.37
2018-10-04T23:40:43.664Z,4.23
2018-10-04T23:43:12.161Z,3.60
2018-10-04T23:45:40.704Z,3.73
2018-10-04T23:48:09.237Z,3.53
2018-10-04T23:50:37.786Z,3.50
2018-10-04T23:53:06.407Z,3.73
2018-10-04T23:55:35.001Z,3.60
2018-10-04T23:58:03.525Z,3.30
